Time;durP1;ratioP1;P1;durP2;ratioP2;P2;SDS_P1;SDS_P2;PMS_P1;PMS_P2;Temp;Humidity;BMP_temperature;BMP_pressure;BME280_temperature;BME280_humidity;BME280_pressure;Samples;Min_cycle;Max_cycle;Signal;HPM_P1;HPM_P2
2023/04/21 00:01:26;;;;;;;17.20;3.20;;;;;;;;;;5068041;28;20098;-62
2023/04/21 00:03:54;;;;;;;15.82;2.55;;;;;;;;;;5067240;28;20350;-61
2023/04/21 00:06:21;;;;;;;16.73;3.00;;;;;;;;;;5067657;28;20021;-62
2023/04/21 00:08:48;;;;;;;11.85;3.25;;;31.20;28.80;;;;;;5074817;28;20117;-62
2023/04/21 00:11:15;;;;;;;12.45;2.65;;;;;;;;;;5068708;28;20031;-62
2023/04/21 00:13:41;;;;;;;18.38;3.63;;;;;;;;;;5071196;28;20373;-60
2023/04/21 00:16:08;;;;;;;23.42;3.30;;;;;;;;;;5075911;28;20016;-61
2023/04/21 00:18:34;;;;;;;10.80;2.88;;;;;;;;;;5074768;28;20486;-61
2023/04/21 00:21:01;;;;;;;12.70;2.90;;;;;;;;;;5076336;28;20492;-61
2023/04/21 00:23:28;;;;;;;17.67;3.70;;;;;;;;;;5072123;28;20385;-62
2023/04/21 00:25:54;;;;;;;19.17;3.25;;;;;;;;;;5071722;28;20024;-64
2023/04/21 00:28:21;;;;;;;15.40;3.15;;;30.20;34.20;;;;;;5073057;28;20028;-61
2023/04/21 00:30:47;;;;;;;22.55;3.78;;;;;;;;;;5074357;28;20020;-60
2023/04/21 00:33:14;;;;;;;16.08;3.70;;;;;;;;;;5073441;28;20431;-62
2023/04/21 00:35:40;;;;;;;10.88;3.47;;;;;;;;;;5073118;28;20247;-62
2023/04/21 00:38:06;;;;;;;13.52;2.90;;;30.30;39.20;;;;;;5068466;28;20027;-63
2023/04/21 00:40:33;;;;;;;11.75;3.50;;;;;;;;;;5069292;28;20024;-62
2023/04/21 00:42:59;;;;;;;21.25;4.43;;;30.20;19.30;;;;;;5065199;28;20048;-63
2023/04/21 00:45:26;;;;;;;20.10;3.42;;;30.10;18.80;;;;;;5067093;28;20044;-66
2023/04/21 00:47:52;;;;;;;18.10;3.85;;;30.10;19.00;;;;;;5069609;28;20025;-63
2023/04/21 00:50:19;;;;;;;12.43;3.17;;;30.00;18.70;;;;;;5067544;28;20096;-62
2023/04/21 00:52:45;;;;;;;16.50;3.47;;;30.00;40.90;;;;;;5070720;28;20024;-62
2023/04/21 00:55:13;;;;;;;10.90;2.92;;;29.90;18.70;;;;;;5073023;28;20039;-61
2023/04/21 00:57:39;;;;;;;23.75;4.32;;;29.20;18.50;;;;;;5068926;28;20028;-60
2023/04/21 01:00:10;;;;;;;42.47;5.53;;;29.80;18.80;;;;;;5067139;28;20021;-62
2023/04/21 01:02:38;;;;;;;15.60;3.72;;;29.40;18.20;;;;;;5071294;28;20115;-62
2023/04/21 01:05:09;;;;;;;104.72;12.45;;;29.70;18.90;;;;;;5066258;28;20508;-61
2023/04/21 01:07:35;;;;;;;15.13;4.03;;;29.60;19.30;;;;;;5071063;28;20025;-60
2023/04/21 01:10:03;;;;;;;26.42;3.85;;;29.50;19.00;;;;;;5073484;28;20074;-60
2023/04/21 01:12:29;;;;;;;18.05;3.63;;;29.40;19.40;;;;;;5070500;28;20024;-60
2023/04/21 01:14:56;;;;;;;19.80;3.50;;;29.30;19.10;;;;;;5078014;28;20037;-61
2023/04/21 01:17:22;;;;;;;13.55;3.15;;;29.20;18.90;;;;;;5077402;28;20016;-62
2023/04/21 01:19:52;;;;;;;15.65;3.13;;;29.20;19.20;;;;;;5077827;28;20068;-63
2023/04/21 01:22:18;;;;;;;17.67;3.30;;;29.10;19.10;;;;;;5071278;28;20449;-68
2023/04/21 01:24:47;;;;;;;11.88;3.28;;;29.10;19.30;;;;;;5075427;28;20082;-60
2023/04/21 01:27:19;;;;;;;13.77;3.60;;;29.10;18.90;;;;;;5078325;28;20501;-60
2023/04/21 01:29:47;;;;;;;11.18;3.15;;;29.00;18.50;;;;;;5076276;28;20117;-57
2023/04/21 01:32:16;;;;;;;16.38;3.15;;;28.90;18.70;;;;;;5070938;28;20061;-55
2023/04/21 01:34:44;;;;;;;17.50;3.50;;;28.80;18.70;;;;;;5079434;28;20051;-55
2023/04/21 01:37:16;;;;;;;14.25;3.50;;;28.70;18.60;;;;;;5073983;28;20295;-59
2023/04/21 01:39:46;;;;;;;17.85;3.05;;;28.60;18.90;;;;;;5074033;28;20099;-62
2023/04/21 01:42:13;;;;;;;12.00;3.70;;;28.50;18.70;;;;;;5078135;28;20125;-62
2023/04/21 01:44:39;;;;;;;12.63;3.50;;;28.40;18.60;;;;;;5072267;28;20094;-60
2023/04/21 01:47:06;;;;;;;16.50;3.65;;;28.40;18.50;;;;;;5070481;28;20059;-58
2023/04/21 01:49:33;;;;;;;12.68;3.45;;;28.30;18.20;;;;;;5066796;28;20133;-62
2023/04/21 01:51:59;;;;;;;13.23;3.10;;;28.20;18.40;;;;;;5072055;28;20017;-55
2023/04/21 01:54:26;;;;;;;12.27;3.28;;;28.20;18.60;;;;;;5077101;28;20413;-61
2023/04/21 01:56:52;;;;;;;16.45;3.00;;;28.00;19.10;;;;;;5075340;28;20467;-62
2023/04/21 01:59:18;;;;;;;16.95;4.55;;;28.00;18.60;;;;;;5075917;28;20063;-63
2023/04/21 02:01:45;;;;;;;23.25;4.70;;;27.90;18.70;;;;;;5080751;28;20057;-60
2023/04/21 02:04:11;;;;;;;15.15;3.95;;;27.90;18.80;;;;;;5074580;28;20082;-59
2023/04/21 02:06:38;;;;;;;14.27;3.70;;;27.80;19.00;;;;;;5075975;28;20097;-63
2023/04/21 02:09:04;;;;;;;14.27;3.88;;;27.70;19.00;;;;;;5076549;28;20538;-60
2023/04/21 02:11:30;;;;;;;29.55;4.03;;;27.60;18.90;;;;;;5074925;28;20161;-61
2023/04/21 02:13:57;;;;;;;19.08;5.20;;;27.60;18.90;;;;;;5081157;28;20097;-62
2023/04/21 02:16:25;;;;;;;18.08;4.97;;;27.50;18.90;;;;;;5075533;28;20065;-65
2023/04/21 02:19:04;;;;;;;14.73;4.68;;;27.40;19.10;;;;;;5070517;28;20426;-61
2023/04/21 02:21:31;;;;;;;28.27;5.63;;;27.40;19.30;;;;;;5072988;28;20569;-59
2023/04/21 02:23:58;;;;;;;17.98;6.32;;;27.30;19.40;;;;;;5079401;28;20051;-58
2023/04/21 02:26:24;;;;;;;22.35;6.20;;;27.20;19.70;;;;;;5074618;28;20597;-59
2023/04/21 02:28:50;;;;;;;22.50;9.13;;;27.10;20.30;;;;;;5073494;28;20076;-59
2023/04/21 02:31:17;;;;;;;36.88;9.35;;;27.00;19.70;;;;;;5069628;28;20072;-57
2023/04/21 02:33:44;;;;;;;27.10;9.23;;;27.00;19.70;;;;;;5072716;28;20164;-61
2023/04/21 02:36:11;;;;;;;23.38;9.25;;;26.90;19.90;;;;;;5075810;28;20128;-64
2023/04/21 02:38:37;;;;;;;27.73;7.97;;;26.80;20.10;;;;;;5074769;28;20165;-57
2023/04/21 02:41:04;;;;;;;25.55;7.82;;;26.80;19.90;;;;;;5073939;28;20071;-61
2023/04/21 02:43:30;;;;;;;26.63;7.25;;;26.70;21.00;;;;;;5078440;28;20062;-61
2023/04/21 02:45:57;;;;;;;31.88;8.07;;;26.60;20.00;;;;;;5075892;28;20112;-65
2023/04/21 02:48:23;;;;;;;25.77;8.00;;;26.60;20.00;;;;;;5069643;28;20071;-66
2023/04/21 02:50:51;;;;;;;29.38;7.97;;;26.50;21.30;;;;;;5075311;28;20070;-61
2023/04/21 02:53:19;;;;;;;25.50;7.07;;;26.40;20.60;;;;;;5074904;28;20068;-60
2023/04/21 02:55:45;;;;;;;27.42;7.53;;;26.40;21.40;;;;;;5070076;28;20131;-59
2023/04/21 02:58:12;;;;;;;29.48;7.70;;;26.30;21.00;;;;;;5073344;28;20072;-61
2023/04/21 03:00:38;;;;;;;26.73;8.32;;;26.20;21.50;;;;;;5071900;28;20435;-59
2023/04/21 03:03:05;;;;;;;38.60;11.70;;;26.10;21.70;;;;;;5076747;28;20071;-62
2023/04/21 03:05:31;;;;;;;45.65;11.95;;;26.00;21.20;;;;;;5081307;28;20163;-61
2023/04/21 03:07:58;;;;;;;40.00;12.82;;;25.90;21.00;;;;;;5070212;28;20063;-58
2023/04/21 03:10:24;;;;;;;37.35;13.70;;;25.80;21.70;;;;;;5069150;28;20163;-62
2023/04/21 03:12:51;;;;;;;42.38;13.57;;;25.80;21.60;;;;;;5068426;28;20076;-59
2023/04/21 03:15:18;;;;;;;30.13;10.93;;;25.70;21.60;;;;;;5066511;28;20088;-58
2023/04/21 03:17:44;;;;;;;20.88;8.05;;;25.60;22.00;;;;;;5067569;28;20427;-58
2023/04/21 03:20:11;;;;;;;24.95;7.15;;;25.50;22.30;;;;;;5065938;28;20080;-62
2023/04/21 03:22:41;;;;;;;291.67;27.13;;;25.40;22.20;;;;;;5071373;28;20090;-55
2023/04/21 03:25:07;;;;;;;167.90;16.35;;;25.30;22.80;;;;;;5064193;28;20086;-61
2023/04/21 03:27:34;;;;;;;556.72;50.78;;;25.20;24.10;;;;;;5071760;28;20167;-61
2023/04/21 03:30:00;;;;;;;403.83;36.13;;;25.10;25.20;;;;;;5071068;28;20430;-59
2023/04/21 03:32:27;;;;;;;294.33;25.25;;;25.00;26.20;;;;;;5074149;28;20064;-60
2023/04/21 03:34:53;;;;;;;160.70;15.90;;;24.90;26.50;;;;;;5069114;28;20072;-60
2023/04/21 03:37:20;;;;;;;79.63;10.15;;;24.70;26.10;;;;;;5075669;28;20209;-58
2023/04/21 03:39:46;;;;;;;46.53;8.30;;;24.60;26.20;;;;;;5070063;28;20455;-59
2023/04/21 03:42:13;;;;;;;50.15;7.15;;;24.50;26.80;;;;;;5069503;28;20525;-61
2023/04/21 03:44:39;;;;;;;49.55;6.90;;;24.30;26.70;;;;;;5067229;28;20094;-64
2023/04/21 03:47:05;;;;;;;39.50;7.25;;;24.30;27.40;;;;;;5066312;28;20395;-60
2023/04/21 03:49:35;;;;;;;41.35;6.97;;;24.20;27.70;;;;;;5067229;28;20075;-60
2023/04/21 03:52:01;;;;;;;38.50;8.35;;;24.10;28.40;;;;;;5066169;28;20078;-59
2023/04/21 03:54:28;;;;;;;54.60;7.93;;;23.90;26.30;;;;;;5066924;28;20079;-62
2023/04/21 03:56:54;;;;;;;51.80;8.32;;;23.80;27.40;;;;;;5067550;28;20164;-59
2023/04/21 03:59:21;;;;;;;55.08;9.38;;;23.60;26.80;;;;;;5067869;28;20079;-58
2023/04/21 04:01:47;;;;;;;51.70;9.18;;;23.60;27.80;;;;;;5068432;28;20575;-55
2023/04/21 04:04:13;;;;;;;61.42;9.27;;;23.50;27.70;;;;;;5066010;28;20102;-60
2023/04/21 04:06:40;;;;;;;65.35;10.02;;;23.40;27.70;;;;;;5066470;28;20151;-56
2023/04/21 04:09:07;;;;;;;60.53;11.32;;;23.40;26.90;;;;;;5065378;28;20627;-56
2023/04/21 04:11:34;;;;;;;61.55;10.63;;;23.40;27.40;;;;;;5066381;28;20103;-53
2023/04/21 04:14:00;;;;;;;47.55;10.32;;;23.30;27.40;;;;;;5066467;28;20668;-59
2023/04/21 04:16:27;;;;;;;88.82;12.55;;;23.20;27.50;;;;;;5067456;28;20083;-58
2023/04/21 04:18:54;;;;;;;55.42;10.85;;;23.10;28.00;;;;;;5068078;28;20111;-58
2023/04/21 04:21:20;;;;;;;56.80;10.48;;;23.10;27.90;;;;;;5068060;28;20489;-58
2023/04/21 04:23:48;;;;;;;49.70;11.57;;;23.00;28.50;;;;;;5065912;28;20084;-61
2023/04/21 04:26:15;;;;;;;53.25;11.57;;;23.00;28.80;;;;;;5067566;28;20432;-60
2023/04/21 04:28:41;;;;;;;73.00;12.20;;;23.00;28.80;;;;;;5067859;28;20072;-63
2023/04/21 04:31:08;;;;;;;54.33;11.38;;;23.00;29.10;;;;;;5069646;28;20089;-59
2023/04/21 04:33:35;;;;;;;70.22;12.45;;;23.00;29.90;;;;;;5070498;28;20064;-62
2023/04/21 04:36:01;;;;;;;61.97;13.02;;;22.80;31.10;;;;;;5071451;28;20092;-61
2023/04/21 04:38:29;;;;;;;76.00;14.93;;;22.70;29.50;;;;;;5071416;28;20087;-61
2023/04/21 04:41:00;;;;;;;73.50;17.08;;;22.60;29.40;;;;;;5065349;28;20060;-59
2023/04/21 04:43:26;;;;;;;82.13;20.38;;;22.50;30.20;;;;;;5072810;28;20150;-61
2023/04/21 04:45:53;;;;;;;96.05;18.40;;;22.50;30.50;;;;;;5071479;28;20168;-63
2023/04/21 04:48:19;;;;;;;69.03;15.77;;;22.50;30.40;;;;;;5070188;28;20554;-62
2023/04/21 04:50:46;;;;;;;65.68;14.93;;;22.50;29.90;;;;;;5069459;28;20532;-62
2023/04/21 04:53:12;;;;;;;67.35;13.75;;;22.50;29.10;;;;;;5071792;28;20201;-62
2023/04/21 04:55:38;;;;;;;73.55;13.80;;;22.50;30.00;;;;;;5069097;28;20554;-62
2023/04/21 04:58:05;;;;;;;88.53;15.48;;;22.50;29.90;;;;;;5067565;28;20082;-61
2023/04/21 05:00:32;;;;;;;71.22;14.13;;;22.40;29.50;;;;;;5068074;28;20155;-62
2023/04/21 05:02:58;;;;;;;77.07;13.90;;;22.50;29.40;;;;;;5080878;28;20087;-62
2023/04/21 05:05:25;;;;;;;61.47;14.43;;;22.40;29.90;;;;;;5071357;28;20079;-60
2023/04/21 05:07:51;;;;;;;78.75;15.02;;;22.40;30.60;;;;;;5070490;28;20535;-61
2023/04/21 05:10:18;;;;;;;62.30;14.32;;;22.30;30.20;;;;;;5071980;28;20164;-59
2023/04/21 05:12:44;;;;;;;61.35;14.82;;;22.20;29.70;;;;;;5064138;28;20126;-59
2023/04/21 05:15:10;;;;;;;77.28;14.07;;;22.10;29.80;;;;;;5069200;28;20072;-60
2023/04/21 05:17:37;;;;;;;64.88;13.65;;;22.10;30.40;;;;;;5068440;28;20099;-61
2023/04/21 05:20:05;;;;;;;80.97;14.15;;;22.00;31.20;;;;;;5077605;28;20080;-61
2023/04/21 05:22:31;;;;;;;84.10;16.83;;;22.10;30.60;;;;;;5069048;28;20160;-62
2023/04/21 05:24:58;;;;;;;74.68;15.90;;;22.10;29.30;;;;;;5068120;28;20079;-60
2023/04/21 05:27:25;;;;;;;80.40;14.98;;;22.10;27.80;;;;;;5076944;28;20539;-60
2023/04/21 05:29:53;;;;;;;83.50;15.70;;;22.00;29.70;;;;;;5067710;28;20096;-61
2023/04/21 05:32:19;;;;;;;72.63;15.10;;;21.90;30.50;;;;;;5074978;28;20078;-61
2023/04/21 05:34:46;;;;;;;63.13;16.05;;;21.90;29.90;;;;;;5076486;28;20250;-62
2023/04/21 05:37:12;;;;;;;74.32;15.80;;;21.90;29.60;;;;;;5068068;28;20528;-61
2023/04/21 05:39:39;;;;;;;76.10;14.88;;;21.80;29.60;;;;;;5070112;28;20102;-61
2023/04/21 05:42:08;;;;;;;79.68;16.10;;;21.70;31.70;;;;;;5069193;28;20072;-60
2023/04/21 05:44:34;;;;;;;73.60;16.67;;;21.60;33.10;;;;;;5067048;28;20400;-59
2023/04/21 05:47:01;;;;;;;76.90;17.85;;;21.50;30.90;;;;;;5072060;28;20154;-59
2023/04/21 05:49:27;;;;;;;64.35;16.75;;;21.50;31.30;;;;;;5070032;28;20170;-60
2023/04/21 05:51:53;;;;;;;78.00;18.42;;;21.40;31.20;;;;;;5075756;28;20477;-61
2023/04/21 05:54:20;;;;;;;76.35;18.05;;;21.40;31.00;;;;;;5071339;28;20131;-60
2023/04/21 05:56:47;;;;;;;78.15;17.30;;;21.30;31.60;;;;;;5080702;28;20084;-61
2023/04/21 05:59:14;;;;;;;93.05;19.98;;;21.30;31.90;;;;;;5079131;28;20137;-60
2023/04/21 06:01:40;;;;;;;96.07;19.63;;;21.20;32.10;;;;;;5074091;28;20068;-61
2023/04/21 06:04:07;;;;;;;89.05;19.30;;;21.20;31.50;;;;;;5073369;28;20205;-61
2023/04/21 06:06:34;;;;;;;93.05;20.13;;;21.20;31.40;;;;;;5071782;28;20111;-62
2023/04/21 06:09:00;;;;;;;75.28;19.13;;;21.10;33.00;;;;;;5068420;28;20084;-60
2023/04/21 06:11:27;;;;;;;92.38;19.40;;;21.10;33.30;;;;;;5068371;28;20070;-60
2023/04/21 06:13:57;;;;;;;113.32;22.48;;;21.00;31.80;;;;;;5069544;28;20095;-60
2023/04/21 06:16:23;;;;;;;98.57;20.60;;;21.00;32.80;;;;;;5071946;28;20122;-60
2023/04/21 06:18:49;;;;;;;106.88;22.02;;;21.00;32.70;;;;;;5072218;28;20095;-60
2023/04/21 06:21:16;;;;;;;120.35;22.63;;;21.00;33.70;;;;;;5071773;28;20138;-60
2023/04/21 06:23:42;;;;;;;106.32;22.98;;;20.90;34.10;;;;;;5072194;28;20076;-61
2023/04/21 06:26:09;;;;;;;86.75;22.02;;;20.90;34.50;;;;;;5074909;28;20083;-62
2023/04/21 06:28:37;;;;;;;97.93;22.33;;;20.90;35.00;;;;;;5066892;28;20071;-61
2023/04/21 06:31:04;;;;;;;103.43;22.17;;;20.80;34.90;;;;;;5067787;28;20072;-60
2023/04/21 06:33:30;;;;;;;93.75;21.20;;;20.80;34.60;;;;;;5069944;28;20091;-60
2023/04/21 06:35:57;;;;;;;89.78;23.55;;;20.80;34.80;;;;;;5069238;28;20164;-60
2023/04/21 06:38:23;;;;;;;90.30;22.23;;;20.70;36.60;;;;;;5075744;28;20086;-61
2023/04/21 06:40:50;;;;;;;98.60;22.05;;;20.70;34.10;;;;;;5072541;28;20115;-59
2023/04/21 06:43:17;;;;;;;98.60;22.92;;;20.70;34.00;;;;;;5070984;28;20109;-60
2023/04/21 06:45:43;;;;;;;81.20;21.35;;;20.70;33.90;;;;;;5077677;28;20123;-61
2023/04/21 06:48:09;;;;;;;105.15;23.30;;;20.80;33.30;;;;;;5073334;28;20072;-60
2023/04/21 06:50:36;;;;;;;104.32;24.05;;;20.60;32.90;;;;;;5076846;28;20098;-60
2023/04/21 06:53:02;;;;;;;95.78;22.48;;;20.60;33.00;;;;;;5076189;28;20072;-59
2023/04/21 06:55:28;;;;;;;89.80;23.15;;;20.50;33.90;;;;;;5073738;28;20072;-59
2023/04/21 06:57:55;;;;;;;100.13;25.23;;;20.50;36.00;;;;;;5075056;28;20125;-60
2023/04/21 07:00:21;;;;;;;110.07;25.30;;;20.50;35.00;;;;;;5074704;28;20071;-61
2023/04/21 07:02:48;;;;;;;99.53;24.55;;;20.50;34.10;;;;;;5084095;28;20086;-61
2023/04/21 07:05:14;;;;;;;113.93;28.48;;;20.50;34.30;;;;;;5076826;28;20095;-61
2023/04/21 07:07:40;;;;;;;106.38;28.17;;;20.40;34.00;;;;;;5069401;28;20099;-60
2023/04/21 07:10:07;;;;;;;101.38;26.95;;;20.50;34.70;;;;;;5069806;28;20174;-60
2023/04/21 07:12:34;;;;;;;100.20;25.15;;;20.40;35.10;;;;;;5076181;28;20200;-60
2023/04/21 07:15:00;;;;;;;100.00;24.20;;;20.40;35.10;;;;;;5078440;28;20077;-60
2023/04/21 07:17:26;;;;;;;79.18;24.52;;;20.30;36.90;;;;;;5070637;28;20075;-61
2023/04/21 07:19:53;;;;;;;107.25;24.65;;;20.30;37.20;;;;;;5067456;28;20080;-60
2023/04/21 07:22:19;;;;;;;95.38;24.92;;;20.30;36.90;;;;;;5078575;28;20068;-61
2023/04/21 07:24:46;;;;;;;90.82;22.52;;;20.20;36.20;;;;;;5074230;28;20084;-60
2023/04/21 07:27:12;;;;;;;105.13;24.50;;;20.10;36.70;;;;;;5071607;28;20114;-60
2023/04/21 07:29:39;;;;;;;89.95;21.77;;;20.10;38.30;;;;;;5072308;28;20084;-61
2023/04/21 07:32:05;;;;;;;85.57;22.45;;;20.10;37.50;;;;;;5079494;28;20064;-60
2023/04/21 07:34:31;;;;;;;80.57;21.05;;;20.10;36.90;;;;;;5079392;28;20080;-60
2023/04/21 07:36:58;;;;;;;91.43;23.02;;;20.10;36.70;;;;;;5075107;28;20087;-60
2023/04/21 07:39:25;;;;;;;95.93;23.25;;;20.20;36.10;;;;;;5067751;28;20099;-60
2023/04/21 07:41:52;;;;;;;85.03;23.20;;;20.00;35.50;;;;;;5073418;28;20609;-60
2023/04/21 07:44:19;;;;;;;90.97;25.27;;;19.90;37.40;;;;;;5071004;28;20111;-62
2023/04/21 07:46:46;;;;;;;89.13;24.75;;;19.90;36.70;;;;;;5073043;28;20107;-59
2023/04/21 07:49:12;;;;;;;95.70;25.48;;;20.00;35.20;;;;;;5069674;28;20060;-58
2023/04/21 07:51:39;;;;;;;116.38;26.55;;;19.90;34.80;;;;;;5069665;28;20088;-62
2023/04/21 07:54:05;;;;;;;84.88;23.90;;;19.90;34.50;;;;;;5072960;28;20072;-60
2023/04/21 07:56:31;;;;;;;102.70;26.17;;;19.90;36.10;;;;;;5071666;28;20155;-61
2023/04/21 07:58:58;;;;;;;93.88;25.02;;;19.90;36.10;;;;;;5069436;28;20083;-61
2023/04/21 08:01:24;;;;;;;108.10;26.00;;;19.90;36.10;;;;;;5077437;28;20481;-60
2023/04/21 08:03:51;;;;;;;90.15;24.85;;;19.80;36.30;;;;;;5076084;28;20082;-60
2023/04/21 08:06:17;;;;;;;77.72;23.58;;;19.80;36.70;;;;;;5077688;28;20446;-59
2023/04/21 08:08:44;;;;;;;90.57;25.80;;;19.70;35.20;;;;;;5071014;28;20521;-60
2023/04/21 08:11:10;;;;;;;81.22;24.85;;;19.80;37.00;;;;;;5078298;28;20155;-62
2023/04/21 08:13:37;;;;;;;83.85;24.75;;;19.60;35.90;;;;;;5071602;28;20079;-60
2023/04/21 08:16:03;;;;;;;80.22;23.02;;;19.50;36.40;;;;;;5071297;28;20091;-60
2023/04/21 08:18:30;;;;;;;67.47;20.15;;;19.60;35.50;;;;;;5069815;28;20121;-61
2023/04/21 08:20:56;;;;;;;77.75;20.08;;;19.60;34.30;;;;;;5070308;28;20120;-60
2023/04/21 08:23:23;;;;;;;70.00;16.65;;;19.60;34.30;;;;;;5070287;28;20789;-62
2023/04/21 08:25:49;;;;;;;74.57;16.05;;;19.60;33.10;;;;;;5069041;28;20447;-61
2023/04/21 08:28:16;;;;;;;90.18;15.50;;;19.60;32.80;;;;;;5069197;28;20757;-60
2023/04/21 08:30:42;;;;;;;115.97;14.80;;;19.60;31.90;;;;;;5072278;28;20075;-60
2023/04/21 08:33:12;;;;;;;105.78;13.73;;;19.50;30.70;;;;;;5076925;28;20071;-61
2023/04/21 08:35:40;;;;;;;88.85;12.95;;;19.50;30.80;;;;;;5069404;28;20098;-59
2023/04/21 08:38:07;;;;;;;79.80;13.27;;;19.50;32.40;;;;;;5067535;28;20100;-60
2023/04/21 08:40:40;;;;;;;98.18;12.85;;;19.50;31.90;;;;;;5072930;28;20070;-60
2023/04/21 08:43:08;;;;;;;70.80;12.10;;;19.40;31.40;;;;;;5070246;28;20073;-59
2023/04/21 08:45:35;;;;;;;48.55;9.80;;;19.30;30.80;;;;;;5067983;28;22201;-60
2023/04/21 08:48:03;;;;;;;54.75;11.18;;;19.40;31.60;;;;;;5077645;28;20065;-61
2023/04/21 08:50:31;;;;;;;67.60;10.88;;;19.40;31.80;;;;;;5070278;28;20551;-60
2023/04/21 08:52:57;;;;;;;96.15;11.70;;;19.40;31.20;;;;;;5071393;28;20068;-60
2023/04/21 08:55:30;;;;;;;60.65;10.07;;;19.30;33.60;;;;;;5067113;28;20072;-59
2023/04/21 08:57:57;;;;;;;61.25;10.40;;;19.20;33.20;;;;;;5072856;28;20075;-61
2023/04/21 09:00:23;;;;;;;58.42;9.48;;;19.30;32.80;;;;;;5067555;28;20137;-61
2023/04/21 09:03:01;;;;;;;65.00;9.38;;;19.20;32.20;;;;;;5073008;28;20435;-58
2023/04/21 09:05:30;;;;;;;63.90;9.63;;;19.20;34.00;;;;;;5068306;28;20178;-61
2023/04/21 09:08:11;;;;;;;73.22;10.63;;;19.30;33.80;;;;;;5071942;28;20118;-60
2023/04/21 09:11:00;;;;;;;49.40;10.48;;;19.30;33.10;;;;;;5072156;28;20067;-59
2023/04/21 09:13:36;;;;;;;40.78;9.93;;;19.30;33.10;;;;;;5067610;28;20139;-59
2023/04/21 09:16:04;;;;;;;;;;;19.20;33.60;;;;;;5069054;28;20075;-56
2023/04/21 09:18:35;;;;;;;59.25;10.18;;;19.20;34.90;;;;;;5076228;28;19972;-59
2023/04/21 09:21:08;;;;;;;48.70;10.27;;;19.10;36.40;;;;;;5070119;28;20120;-59
2023/04/21 09:23:51;;;;;;;48.65;9.73;;;19.10;35.90;;;;;;5070241;28;20075;-59
2023/04/21 09:26:19;;;;;;;56.35;11.13;;;19.10;36.90;;;;;;5070763;28;20096;-59
2023/04/21 09:28:47;;;;;;;50.22;10.90;;;19.00;35.80;;;;;;5075960;28;20150;-60
2023/04/21 09:31:18;;;;;;;50.78;11.65;;;18.90;35.70;;;;;;5077216;28;20075;-59
2023/04/21 09:33:53;;;;;;;53.42;12.88;;;18.80;35.10;;;;;;5082894;28;20092;-60
2023/04/21 09:36:22;;;;;;;45.88;13.32;;;18.80;35.10;;;;;;5077762;28;20079;-60
2023/04/21 09:38:54;;;;;;;49.33;13.02;;;18.70;34.30;;;;;;5073316;28;20122;-60
2023/04/21 09:41:21;;;;;;;46.78;11.55;;;18.70;34.90;;;;;;5072668;28;20084;-60
2023/04/21 09:43:50;;;;;;;50.53;11.43;;;18.70;34.70;;;;;;5078959;28;20076;-60
2023/04/21 09:46:18;;;;;;;42.58;8.32;;;18.60;34.10;;;;;;5071803;28;20161;-61
2023/04/21 09:48:45;;;;;;;45.92;8.82;;;18.60;33.20;;;;;;5071383;28;20087;-59
2023/04/21 09:51:13;;;;;;;35.60;8.38;;;18.70;33.50;;;;;;5073876;28;20152;-60
2023/04/21 09:53:41;;;;;;;39.53;8.68;;;18.80;33.40;;;;;;5075279;28;20082;-60
2023/04/21 09:56:12;;;;;;;42.40;8.65;;;18.70;33.30;;;;;;5075360;28;20124;-60
2023/04/21 09:59:00;;;;;;;33.45;7.15;;;18.70;33.90;;;;;;5076826;28;20488;-59
2023/04/21 10:01:28;;;;;;;32.00;6.03;;;18.70;33.60;;;;;;5080093;28;20111;-60
2023/04/21 10:03:55;;;;;;;30.48;6.28;;;18.70;33.30;;;;;;5079422;28;20479;-59
2023/04/21 10:06:22;;;;;;;34.65;6.32;;;18.60;33.20;;;;;;5074261;28;20101;-58
2023/04/21 10:08:50;;;;;;;22.15;5.90;;;18.60;33.30;;;;;;5074905;28;20073;-60
2023/04/21 10:11:17;;;;;;;32.67;6.22;;;18.50;33.00;;;;;;5075756;28;20147;-57
2023/04/21 10:13:44;;;;;;;19.67;5.30;;;18.40;32.70;;;;;;5076147;28;20071;-61
2023/04/21 10:16:11;;;;;;;21.25;4.97;;;18.30;32.70;;;;;;5077229;28;20178;-60
2023/04/21 10:18:41;;;;;;;23.80;5.03;;;18.30;32.50;;;;;;5069828;28;20072;-59
2023/04/21 10:21:09;;;;;;;23.05;4.68;;;18.40;31.90;;;;;;5075666;28;20088;-60
2023/04/21 10:23:43;;;;;;;18.20;4.03;;;18.40;31.20;;;;;;5070437;28;20417;-60
2023/04/21 10:26:31;;;;;;;12.25;3.22;;;18.40;30.00;;;;;;5081572;28;20089;-59
2023/04/21 10:29:06;;;;;;;23.83;4.30;;;18.50;29.60;;;;;;5078111;28;20095;-61
2023/04/21 10:31:56;;;;;;;19.42;5.13;;;18.60;29.80;;;;;;5077459;28;20068;-56
2023/04/21 10:34:49;;;;;;;11.52;3.47;;;18.60;29.70;;;;;;5071472;28;20500;-61
2023/04/21 10:37:18;;;;;;;16.80;3.85;;;18.60;29.60;;;;;;5070548;28;20096;-61
2023/04/21 10:39:51;;;;;;;18.45;4.13;;;18.60;29.50;;;;;;5072373;28;20566;-59
2023/04/21 10:42:21;;;;;;;21.38;4.43;;;18.60;29.70;;;;;;5070935;28;20091;-61
2023/04/21 10:44:57;;;;;;;19.10;3.78;;;18.70;29.80;;;;;;5071962;28;20582;-58
2023/04/21 10:47:43;;;;;;;18.40;4.38;;;18.60;30.00;;;;;;5070120;28;20103;-59
2023/04/21 10:50:29;;;;;;;18.45;4.20;;;18.60;30.20;;;;;;5080524;28;20106;-59
2023/04/21 10:53:08;;;;;;;17.52;4.00;;;18.60;30.10;;;;;;5073687;28;20068;-59
2023/04/21 10:55:34;;;;;;;17.58;4.40;;;18.60;30.20;;;;;;5070582;28;20073;-58
2023/04/21 10:58:06;;;;;;;21.58;4.57;;;18.60;30.10;;;;;;5079254;28;20082;-57
2023/04/21 11:00:32;;;;;;;16.70;3.90;;;18.60;29.90;;;;;;5072097;28;20088;-58
2023/04/21 11:03:01;;;;;;;15.23;4.25;;;18.60;30.00;;;;;;5076997;28;20080;-58
2023/04/21 11:05:37;;;;;;;21.73;4.22;;;18.50;30.00;;;;;;5073628;28;20091;-60
2023/04/21 11:08:14;;;;;;;23.05;4.60;;;18.50;31.10;;;;;;5077646;28;20080;-60
2023/04/21 11:10:51;;;;;;;12.90;4.45;;;18.50;30.60;;;;;;5070907;28;20075;-60
2023/04/21 11:13:24;;;;;;;15.48;4.18;;;18.50;30.80;;;;;;5076506;28;20075;-58
2023/04/21 11:16:17;;;;;;;21.92;4.53;;;18.40;32.40;;;;;;5072939;28;20167;-58
2023/04/21 11:18:44;;;;;;;17.02;3.97;;;18.30;31.80;;;;;;5072199;28;20100;-60
2023/04/21 11:21:20;;;;;;;21.58;4.57;;;18.30;31.50;;;;;;5071570;28;20155;-59
2023/04/21 11:23:56;;;;;;;19.07;4.63;;;18.30;31.80;;;;;;5074170;28;20582;-61
2023/04/21 11:26:30;;;;;;;19.23;4.50;;;18.30;31.70;;;;;;5073864;28;20355;-58
2023/04/21 11:29:06;;;;;;;15.07;4.30;;;18.30;31.20;;;;;;5074069;28;20123;-60
2023/04/21 11:31:33;;;;;;;21.58;4.95;;;18.20;31.30;;;;;;5070418;28;20130;-58
2023/04/21 11:34:00;;;;;;;12.68;4.35;;;18.20;31.10;;;;;;5078631;28;20551;-58
2023/04/21 11:36:28;;;;;;;19.17;4.63;;;18.10;31.10;;;;;;5075002;28;20100;-58
2023/04/21 11:38:54;;;;;;;21.25;4.53;;;18.10;31.10;;;;;;5076930;28;20096;-59
2023/04/21 11:41:22;;;;;;;24.73;5.13;;;18.10;31.40;;;;;;5073137;28;20075;-59
2023/04/21 11:43:49;;;;;;;16.38;4.50;;;18.00;31.40;;;;;;5074480;28;20158;-59
2023/04/21 11:46:26;;;;;;;21.85;4.78;;;18.10;31.60;;;;;;5068654;28;20561;-59
2023/04/21 11:49:06;;;;;;;22.08;4.30;;;18.10;31.70;;;;;;5068794;28;20447;-59
2023/04/21 11:51:40;;;;;;;16.42;4.07;;;18.00;31.90;;;;;;5067711;28;20085;-60
2023/04/21 11:54:09;;;;;;;17.38;4.70;;;17.90;32.20;;;;;;5070044;28;20071;-61
2023/04/21 11:56:37;;;;;;;17.63;4.45;;;17.70;33.70;;;;;;5074060;28;20073;-64
2023/04/21 11:59:25;;;;;;;18.38;4.53;;;17.60;34.00;;;;;;5073885;28;20084;-59
2023/04/21 12:01:53;;;;;;;20.77;4.93;;;17.60;32.30;;;;;;5075370;28;20062;-59
2023/04/21 12:04:22;;;;;;;18.00;4.60;;;17.60;32.20;;;;;;5074785;28;20584;-59
2023/04/21 12:06:59;;;;;;;17.88;4.63;;;17.60;32.20;;;;;;5067451;28;20125;-59
2023/04/21 12:09:26;;;;;;;27.25;5.13;;;17.70;31.60;;;;;;5068165;28;20065;-60
2023/04/21 12:12:00;;;;;;;20.92;4.75;;;17.70;31.30;;;;;;5069056;28;20880;-59
2023/04/21 12:14:27;;;;;;;22.70;4.72;;;17.70;31.60;;;;;;5067139;28;20155;-60
2023/04/21 12:16:55;;;;;;;26.95;6.05;;;17.60;33.20;;;;;;5072080;28;20163;-60
2023/04/21 12:19:25;;;;;;;26.48;5.10;;;17.60;33.30;;;;;;5079000;28;20106;-59
2023/04/21 12:21:57;;;;;;;30.00;5.60;;;17.60;32.00;;;;;;5073214;28;20076;-59
2023/04/21 12:24:24;;;;;;;21.08;4.75;;;17.40;32.40;;;;;;5068739;28;20076;-61
2023/04/21 12:26:51;;;;;;;29.10;5.90;;;17.40;32.20;;;;;;5068301;28;20854;-60
2023/04/21 12:29:17;;;;;;;26.13;5.90;;;17.30;33.90;;;;;;5068480;28;20065;-61
2023/04/21 12:31:44;;;;;;;22.73;4.95;;;17.20;32.80;;;;;;5072851;28;20096;-62
2023/04/21 12:34:10;;;;;;;37.83;6.00;;;17.20;32.60;;;;;;5067190;28;20083;-59
2023/04/21 12:36:37;;;;;;;22.75;5.53;;;17.30;32.40;;;;;;5073724;28;20118;-61
2023/04/21 12:39:05;;;;;;;24.83;5.32;;;17.40;32.80;;;;;;5078652;28;20100;-62
2023/04/21 12:41:31;;;;;;;22.92;5.72;;;17.20;31.90;;;;;;5076087;28;20084;-60